createdAt,value
2018-02-01T00:01:48.772Z,1.40
2018-02-01T00:04:17.272Z,1.00
2018-02-01T00:06:45.591Z,0.73
2018-02-01T00:09:13.899Z,0.67
2018-02-01T00:11:43.022Z,1.20
2018-02-01T00:14:11.324Z,0.90
2018-02-01T00:16:39.619Z,1.07
2018-02-01T00:19:07.727Z,0.97
2018-02-01T00:21:36.036Z,0.87
2018-02-01T00:24:04.352Z,1.10
2018-02-01T00:26:32.708Z,1.10
2018-02-01T00:29:01.010Z,0.90
2018-02-01T00:31:29.311Z,0.80
2018-02-01T00:33:57.666Z,0.80
2018-02-01T00:36:25.963Z,0.90
2018-02-01T00:38:55.031Z,1.00
2018-02-01T00:41:23.379Z,1.10
2018-02-01T00:43:51.735Z,1.20
2018-02-01T00:46:20.035Z,0.93
2018-02-01T00:48:48.400Z,1.00
2018-02-01T00:51:16.709Z,0.80
2018-02-01T00:53:45.019Z,0.90
2018-02-01T00:56:13.531Z,0.90
2018-02-01T00:58:41.862Z,1.00
2018-02-01T01:01:10.169Z,0.90
2018-02-01T01:03:38.495Z,0.70
2018-02-01T01:06:06.797Z,1.00
2018-02-01T01:08:35.098Z,2.07
2018-02-01T01:11:03.522Z,0.80
2018-02-01T01:13:31.823Z,1.20
2018-02-01T01:16:00.124Z,1.07
2018-02-01T01:18:28.551Z,0.80
2018-02-01T01:20:56.856Z,0.90
2018-02-01T01:23:25.156Z,0.90
2018-02-01T01:25:53.991Z,0.90
2018-02-01T01:28:22.559Z,1.37
2018-02-01T01:30:50.865Z,0.90
2018-02-01T01:33:19.786Z,0.70
2018-02-01T01:35:48.135Z,0.83
2018-02-01T01:38:16.435Z,0.80
2018-02-01T01:40:44.940Z,0.77
2018-02-01T01:43:13.236Z,1.10
2018-02-01T01:45:41.555Z,0.97
2018-02-01T01:48:09.896Z,0.90
2018-02-01T01:50:38.199Z,1.00
2018-02-01T01:53:06.508Z,1.07
2018-02-01T01:55:34.855Z,1.10
2018-02-01T01:58:03.157Z,1.47
2018-02-01T02:00:31.460Z,1.10
2018-02-01T02:03:00.770Z,1.30
2018-02-01T02:05:29.067Z,1.23
2018-02-01T02:07:57.369Z,1.10
2018-02-01T02:10:25.724Z,1.10
2018-02-01T02:12:54.042Z,1.10
2018-02-01T02:15:22.448Z,1.03
2018-02-01T02:17:50.794Z,0.87
2018-02-01T02:20:19.131Z,1.60
2018-02-01T02:22:47.484Z,1.30
2018-02-01T02:25:16.083Z,1.60
2018-02-01T02:27:44.394Z,2.10
2018-02-01T02:30:12.692Z,1.63
2018-02-01T02:32:41.125Z,1.63
2018-02-01T02:35:09.487Z,1.20
2018-02-01T02:37:38.005Z,1.23
2018-02-01T02:40:06.705Z,1.40
2018-02-01T02:42:35.023Z,1.20
2018-02-01T02:45:04.099Z,1.47
2018-02-01T02:47:32.709Z,1.30
2018-02-01T02:50:01.020Z,1.53
2018-02-01T02:52:29.323Z,1.60
2018-02-01T02:54:57.783Z,2.03
2018-02-01T02:57:26.098Z,1.57
2018-02-01T02:59:54.412Z,2.03
2018-02-01T03:02:22.768Z,2.10
2018-02-01T03:04:51.075Z,1.90
2018-02-01T03:07:19.389Z,1.90
2018-02-01T03:09:47.981Z,2.37
2018-02-01T03:12:16.291Z,2.37
2018-02-01T03:14:44.598Z,2.67
2018-02-01T03:17:12.943Z,3.60
2018-02-01T03:19:42.007Z,3.43
2018-02-01T03:22:10.311Z,3.17
2018-02-01T03:24:39.427Z,3.93
2018-02-01T03:27:07.731Z,2.93
2018-02-01T03:29:36.027Z,2.70
2018-02-01T03:32:04.400Z,2.03
2018-02-01T03:34:32.624Z,2.53
2018-02-01T03:37:00.930Z,2.40
2018-02-01T03:39:29.243Z,4.10
2018-02-01T03:41:57.834Z,3.67
2018-02-01T03:44:26.148Z,3.83
2018-02-01T03:46:54.471Z,3.30
2018-02-01T03:49:22.799Z,3.50
2018-02-01T03:51:51.863Z,4.50
2018-02-01T03:54:20.161Z,4.83
2018-02-01T03:56:48.511Z,3.97
2018-02-01T03:59:17.025Z,3.07
2018-02-01T04:01:45.574Z,2.90
2018-02-01T04:04:14.711Z,2.23
2018-02-01T04:06:43.020Z,2.40
2018-02-01T04:09:11.304Z,2.50
2018-02-01T04:11:39.899Z,2.30
2018-02-01T04:14:08.208Z,2.13
2018-02-01T04:16:37.282Z,1.60
2018-02-01T04:19:05.891Z,1.90
2018-02-01T04:21:34.224Z,2.50
2018-02-01T04:24:02.524Z,1.87
2018-02-01T04:26:31.259Z,2.10
2018-02-01T04:28:59.974Z,2.40
2018-02-01T04:31:28.627Z,2.03
2018-02-01T04:33:57.029Z,1.60
2018-02-01T04:36:25.336Z,1.73
2018-02-01T04:38:53.639Z,1.83
2018-02-01T04:41:23.090Z,1.90
2018-02-01T04:43:51.389Z,1.93
2018-02-01T04:46:19.687Z,1.20
2018-02-01T04:48:48.027Z,0.63
2018-02-01T04:51:16.327Z,0.83
2018-02-01T04:53:44.624Z,0.80
2018-02-01T04:56:12.993Z,0.70
2018-02-01T04:58:41.283Z,0.70
2018-02-01T05:01:10.414Z,0.60
2018-02-01T05:03:38.739Z,0.60
2018-02-01T05:06:07.046Z,0.77
2018-02-01T05:08:35.351Z,0.57
2018-02-01T05:11:03.947Z,0.70
2018-02-01T05:13:32.252Z,0.93
2018-02-01T05:16:00.563Z,0.50
2018-02-01T05:18:28.904Z,0.80
2018-02-01T05:20:57.203Z,0.63
2018-02-01T05:23:26.271Z,1.30
2018-02-01T05:25:54.615Z,0.77
2018-02-01T05:28:23.288Z,0.73
2018-02-01T05:30:51.897Z,0.80
2018-02-01T05:33:20.458Z,0.60
2018-02-01T05:35:49.679Z,0.70
2018-02-01T05:38:17.992Z,1.07
2018-02-01T05:40:46.590Z,0.70
2018-02-01T05:43:15.140Z,0.70
2018-02-01T05:45:44.240Z,0.80
2018-02-01T05:48:12.832Z,0.70
2018-02-01T05:50:41.132Z,0.60
2018-02-01T05:53:09.446Z,1.90
2018-02-01T05:55:37.768Z,1.07
2018-02-01T05:58:06.078Z,1.10
2018-02-01T06:00:34.436Z,0.70
2018-02-01T06:03:03.025Z,0.90
2018-02-01T06:05:31.787Z,0.83
2018-02-01T06:07:59.950Z,0.80
2018-02-01T06:10:28.441Z,1.00
2018-02-01T06:12:56.604Z,1.10
2018-02-01T06:15:26.232Z,1.20
2018-02-01T06:17:57.845Z,1.60
2018-02-01T06:20:26.255Z,1.07
2018-02-01T06:22:54.685Z,1.53
2018-02-01T06:25:22.992Z,1.87
2018-02-01T06:27:51.915Z,2.40
2018-02-01T06:30:20.315Z,1.37
2018-02-01T06:32:48.633Z,1.50
2018-02-01T06:35:16.755Z,1.43
2018-02-01T06:37:45.828Z,1.67
2018-02-01T06:40:14.251Z,1.93
2018-02-01T06:42:42.811Z,1.73
2018-02-01T06:45:11.245Z,2.17
2018-02-01T06:47:39.872Z,1.90
2018-02-01T06:50:09.021Z,2.20
2018-02-01T06:52:38.111Z,1.80
2018-02-01T06:55:07.424Z,1.20
2018-02-01T06:57:35.731Z,1.50
2018-02-01T07:00:04.044Z,1.40
2018-02-01T07:02:33.342Z,2.40
2018-02-01T07:05:01.900Z,1.40
2018-02-01T07:07:30.196Z,2.10
2018-02-01T07:09:58.316Z,1.87
2018-02-01T07:12:26.823Z,1.97
2018-02-01T07:14:56.704Z,4.77
2018-02-01T07:17:26.612Z,2.30
2018-02-01T07:19:55.588Z,2.23
2018-02-01T07:22:24.756Z,2.47
2018-02-01T07:24:53.507Z,1.93
2018-02-01T07:27:22.225Z,2.53
2018-02-01T07:29:50.541Z,2.07
2018-02-01T07:32:18.847Z,2.27
2018-02-01T07:34:47.456Z,2.30
2018-02-01T07:37:15.896Z,1.97
2018-02-01T07:39:45.140Z,1.80
2018-02-01T07:42:13.502Z,2.57
2018-02-01T07:44:41.729Z,2.50
2018-02-01T07:47:10.094Z,2.20
2018-02-01T07:49:39.164Z,1.80
2018-02-01T07:52:07.511Z,2.53
2018-02-01T07:54:36.015Z,2.73
2018-02-01T07:57:04.365Z,2.90
2018-02-01T07:59:32.723Z,2.10
2018-02-01T08:02:01.352Z,2.40
2018-02-01T08:04:29.724Z,3.20
2018-02-01T08:06:58.035Z,2.67
2018-02-01T08:09:26.568Z,2.07
2018-02-01T08:11:55.036Z,3.03
2018-02-01T08:14:23.695Z,4.17
2018-02-01T08:16:52.004Z,4.27
2018-02-01T08:19:20.328Z,4.20
2018-02-01T08:21:48.768Z,4.10
2018-02-01T08:24:17.075Z,4.00
2018-02-01T08:26:45.400Z,3.87
2018-02-01T08:29:14.003Z,3.90
2018-02-01T08:31:42.304Z,4.30
2018-02-01T08:34:10.887Z,2.87
2018-02-01T08:36:39.204Z,2.40
2018-02-01T08:39:07.522Z,1.97
2018-02-01T08:41:36.666Z,2.20
2018-02-01T08:44:04.967Z,2.20
2018-02-01T08:46:34.035Z,1.97
2018-02-01T08:49:02.391Z,1.93
2018-02-01T08:51:30.691Z,1.63
2018-02-01T08:53:58.988Z,1.93
2018-02-01T08:56:27.287Z,2.63
2018-02-01T08:58:55.604Z,4.30
2018-02-01T09:01:23.927Z,2.60
2018-02-01T09:03:53.040Z,2.57
2018-02-01T09:06:21.356Z,2.60
2018-02-01T09:08:49.659Z,1.70
2018-02-01T09:11:18.004Z,2.30
2018-02-01T09:13:46.312Z,1.93
2018-02-01T09:16:14.623Z,2.03
2018-02-01T09:18:43.063Z,2.17
2018-02-01T09:21:11.364Z,3.20
2018-02-01T09:23:40.435Z,1.87
2018-02-01T09:26:09.552Z,2.60
2018-02-01T09:28:38.629Z,2.13
2018-02-01T09:31:07.447Z,1.30
2018-02-01T09:33:36.083Z,1.20
2018-02-01T09:36:04.419Z,1.63
2018-02-01T09:38:32.741Z,1.30
2018-02-01T09:41:01.203Z,1.93
2018-02-01T09:43:29.499Z,2.00
2018-02-01T09:45:57.811Z,1.60
2018-02-01T09:48:27.184Z,1.80
2018-02-01T09:50:55.484Z,1.60
2018-02-01T09:53:23.791Z,1.97
2018-02-01T09:55:52.166Z,1.80
2018-02-01T09:58:20.479Z,2.00
2018-02-01T10:00:48.788Z,1.50
2018-02-01T10:03:17.229Z,1.27
2018-02-01T10:05:45.528Z,1.00
2018-02-01T10:08:13.835Z,1.20
2018-02-01T10:10:42.188Z,1.00
2018-02-01T10:13:10.496Z,1.00
2018-02-01T10:15:39.559Z,0.97
2018-02-01T10:18:08.184Z,0.80
2018-02-01T10:20:36.486Z,1.10
2018-02-01T10:23:04.787Z,0.80
2018-02-01T10:25:33.464Z,1.40
2018-02-01T10:28:01.928Z,1.00
2018-02-01T10:30:30.004Z,1.40
2018-02-01T10:32:58.639Z,1.10
2018-02-01T10:35:27.245Z,1.10
2018-02-01T10:37:55.546Z,1.40
2018-02-01T10:40:23.850Z,1.10
2018-02-01T10:42:52.367Z,0.90
2018-02-01T10:45:20.682Z,3.00
2018-02-01T10:47:48.964Z,1.00
2018-02-01T10:50:17.313Z,1.00
2018-02-01T10:52:45.387Z,1.37
2018-02-01T10:55:13.819Z,1.67
2018-02-01T10:57:42.316Z,0.80
2018-02-01T11:00:11.700Z,1.40
2018-02-01T11:02:40.451Z,1.30
2018-02-01T11:05:09.005Z,0.90
2018-02-01T11:07:37.633Z,0.80
2018-02-01T11:10:07.156Z,1.30
2018-02-01T11:12:36.277Z,1.27
2018-02-01T11:15:04.583Z,1.63
2018-02-01T11:17:33.692Z,1.30
2018-02-01T11:20:02.012Z,1.20
2018-02-01T11:22:30.320Z,1.00
2018-02-01T11:24:58.695Z,1.47
2018-02-01T11:27:28.081Z,1.03
2018-02-01T11:29:56.776Z,1.30
2018-02-01T11:32:25.134Z,2.30
2018-02-01T11:34:53.631Z,0.97
2018-02-01T11:37:21.935Z,1.13
2018-02-01T11:39:50.999Z,1.07
2018-02-01T11:42:19.367Z,1.10
2018-02-01T11:44:47.666Z,2.60
2018-02-01T11:47:16.052Z,1.10
2018-02-01T11:49:45.501Z,1.17
2018-02-01T11:52:13.799Z,1.87
2018-02-01T11:54:41.916Z,1.80
2018-02-01T11:57:10.283Z,1.17
2018-02-01T11:59:38.602Z,0.90
2018-02-01T12:02:07.447Z,1.63
2018-02-01T12:04:35.808Z,1.00
2018-02-01T12:07:04.102Z,1.53
2018-02-01T12:09:32.687Z,1.10
2018-02-01T12:12:00.983Z,1.10
2018-02-01T12:14:31.229Z,1.40
2018-02-01T12:16:59.531Z,1.00
2018-02-01T12:19:27.827Z,1.00
2018-02-01T12:21:56.216Z,0.90
2018-02-01T12:24:24.723Z,1.30
2018-02-01T12:26:53.040Z,1.07
2018-02-01T12:29:21.379Z,1.13
2018-02-01T12:31:49.966Z,1.07
2018-02-01T12:34:18.609Z,0.90
2018-02-01T12:36:46.952Z,1.20
2018-02-01T12:39:15.268Z,1.80
2018-02-01T12:41:43.563Z,0.93
2018-02-01T12:44:12.174Z,1.20
2018-02-01T12:46:41.027Z,2.97
2018-02-01T12:49:09.328Z,1.17
2018-02-01T12:51:37.688Z,1.17
2018-02-01T12:54:06.005Z,0.80
2018-02-01T12:56:34.345Z,1.73
2018-02-01T12:59:03.943Z,1.67
2018-02-01T13:01:32.252Z,1.13
2018-02-01T13:04:00.552Z,1.97
2018-02-01T13:06:28.900Z,1.50
2018-02-01T13:08:57.195Z,1.17
2018-02-01T13:11:25.499Z,1.10
2018-02-01T13:13:53.951Z,1.87
2018-02-01T13:16:22.259Z,1.03
2018-02-01T13:18:50.755Z,1.00
2018-02-01T13:21:19.448Z,1.30
2018-02-01T13:23:48.042Z,0.93
2018-02-01T13:26:16.412Z,1.07
2018-02-01T13:28:45.020Z,1.00
2018-02-01T13:31:14.403Z,1.10
2018-02-01T13:33:42.715Z,1.00
2018-02-01T13:36:11.351Z,1.60
2018-02-01T13:38:39.695Z,2.60
2018-02-01T13:41:08.295Z,1.80
2018-02-01T13:43:36.620Z,1.50
2018-02-01T13:46:04.936Z,1.60
2018-02-01T13:48:33.544Z,1.63
2018-02-01T13:51:01.894Z,1.43
2018-02-01T13:53:30.165Z,1.37
2018-02-01T13:55:58.517Z,1.80
2018-02-01T13:58:27.587Z,1.53
2018-02-01T14:00:55.895Z,1.57
2018-02-01T14:03:25.192Z,1.90
2018-02-01T14:05:54.263Z,1.20
2018-02-01T14:08:22.579Z,2.27
2018-02-01T14:10:50.948Z,1.60
2018-02-01T14:13:19.256Z,1.77
2018-02-01T14:15:47.599Z,1.77
2018-02-01T14:18:16.713Z,2.03
2018-02-01T14:20:45.016Z,2.23
2018-02-01T14:23:13.321Z,3.50
2018-02-01T14:25:41.751Z,2.67
2018-02-01T14:28:10.060Z,2.90
2018-02-01T14:30:38.656Z,2.50
2018-02-01T14:33:07.017Z,1.77
2018-02-01T14:35:35.380Z,2.53
2018-02-01T14:38:03.736Z,2.80
2018-02-01T14:40:32.049Z,1.93
2018-02-01T14:43:00.365Z,3.03
2018-02-01T14:45:28.716Z,2.90
2018-02-01T14:47:58.044Z,2.03
2018-02-01T14:50:26.387Z,1.83
2018-02-01T14:52:54.732Z,1.80
2018-02-01T14:55:23.047Z,2.40
2018-02-01T14:57:51.376Z,2.00
2018-02-01T15:00:20.496Z,1.57
2018-02-01T15:02:48.804Z,3.10
2018-02-01T15:05:17.119Z,2.53
2018-02-01T15:07:45.476Z,1.67
2018-02-01T15:10:13.776Z,1.97
2018-02-01T15:12:42.848Z,2.50
2018-02-01T15:15:11.439Z,2.53
2018-02-01T15:17:39.766Z,1.80
2018-02-01T15:20:08.099Z,1.90
2018-02-01T15:22:37.316Z,2.60
2018-02-01T15:25:05.619Z,1.70
2018-02-01T15:27:33.948Z,2.60
2018-02-01T15:30:02.639Z,2.30
2018-02-01T15:32:31.849Z,2.03
2018-02-01T15:35:00.155Z,2.33
2018-02-01T15:37:28.749Z,3.33
2018-02-01T15:39:57.064Z,3.70
2018-02-01T15:42:25.358Z,2.10
2018-02-01T15:44:53.739Z,2.80
2018-02-01T15:47:22.808Z,4.67
2018-02-01T15:49:51.124Z,2.70
2018-02-01T15:52:20.247Z,2.20
2018-02-01T15:54:48.551Z,5.27
2018-02-01T15:57:16.854Z,3.60
2018-02-01T15:59:45.179Z,3.87
2018-02-01T16:02:13.487Z,3.07
2018-02-01T16:04:41.835Z,2.53
2018-02-01T16:07:10.213Z,3.10
2018-02-01T16:09:38.720Z,2.33
2018-02-01T16:12:07.239Z,2.50
2018-02-01T16:14:36.539Z,2.50
2018-02-01T16:17:05.615Z,2.30
2018-02-01T16:19:34.004Z,3.03
2018-02-01T16:22:02.212Z,3.03
2018-02-01T16:24:30.524Z,3.20
2018-02-01T16:26:58.824Z,3.23
2018-02-01T16:29:27.192Z,2.40
2018-02-01T16:31:55.495Z,2.50
2018-02-01T16:34:24.574Z,3.23
2018-02-01T16:36:52.923Z,3.70
2018-02-01T16:39:21.217Z,2.40
2018-02-01T16:41:50.280Z,2.07
2018-02-01T16:44:18.888Z,2.73
2018-02-01T16:46:47.195Z,3.33
2018-02-01T16:49:16.271Z,2.93
2018-02-01T16:51:44.886Z,3.37
2018-02-01T16:54:13.198Z,3.27
2018-02-01T16:56:41.271Z,3.10
2018-02-01T16:59:09.619Z,4.27
2018-02-01T17:01:38.691Z,2.00
2018-02-01T17:04:07.008Z,2.03
2018-02-01T17:06:35.363Z,2.67
2018-02-01T17:09:03.676Z,2.50
2018-02-01T17:11:32.006Z,2.67
2018-02-01T17:14:01.285Z,2.73
2018-02-01T17:16:29.403Z,2.90
2018-02-01T17:18:57.703Z,2.33
2018-02-01T17:21:25.999Z,3.00
2018-02-01T17:23:54.387Z,2.87
2018-02-01T17:26:22.722Z,3.00
2018-02-01T17:28:51.035Z,3.60
2018-02-01T17:31:19.371Z,3.37
2018-02-01T17:33:47.676Z,3.00
2018-02-01T17:36:15.947Z,3.73
2018-02-01T17:38:44.252Z,3.43
2018-02-01T17:41:12.553Z,3.67
2018-02-01T17:43:41.147Z,4.73
2018-02-01T17:46:09.452Z,5.70
2018-02-01T17:48:37.759Z,3.80
2018-02-01T17:51:06.107Z,4.40
2018-02-01T17:53:34.408Z,5.33
2018-02-01T17:56:02.715Z,4.70
2018-02-01T17:58:31.098Z,4.80
2018-02-01T18:00:59.404Z,5.57
2018-02-01T18:03:27.707Z,4.40
2018-02-01T18:05:56.303Z,4.50
2018-02-01T18:08:24.606Z,5.17
2018-02-01T18:10:52.910Z,4.10
2018-02-01T18:13:22.290Z,4.00
2018-02-01T18:15:50.603Z,3.43
2018-02-01T18:18:18.911Z,4.20
2018-02-01T18:20:47.540Z,3.57
2018-02-01T18:23:16.175Z,3.90
2018-02-01T18:25:44.573Z,4.77
2018-02-01T18:28:13.676Z,4.23
2018-02-01T18:30:42.044Z,3.70
2018-02-01T18:33:10.344Z,4.20
2018-02-01T18:35:38.655Z,4.50
2018-02-01T18:38:07.306Z,4.87
2018-02-01T18:40:35.682Z,5.00
2018-02-01T18:43:04.032Z,7.10
2018-02-01T18:45:32.553Z,7.60
2018-02-01T18:48:00.901Z,5.60
2018-02-01T18:50:29.256Z,6.20
2018-02-01T18:52:57.931Z,7.23
2018-02-01T18:55:26.286Z,5.70
2018-02-01T18:57:54.588Z,4.80
2018-02-01T19:00:23.342Z,6.40
2018-02-01T19:02:52.040Z,6.40
2018-02-01T19:05:21.111Z,6.30
2018-02-01T19:07:50.036Z,5.63
2018-02-01T19:10:18.384Z,5.87
2018-02-01T19:12:46.696Z,4.63
2018-02-01T19:15:15.067Z,4.60
2018-02-01T19:17:43.911Z,4.43
2018-02-01T19:20:12.627Z,5.10
2018-02-01T19:22:43.113Z,4.50
2018-02-01T19:25:11.421Z,4.90
2018-02-01T19:27:39.738Z,4.33
2018-02-01T19:30:08.178Z,5.23
2018-02-01T19:32:36.496Z,5.18
2018-02-01T19:35:05.347Z,5.43
2018-02-01T19:37:33.805Z,4.93
2018-02-01T19:40:02.509Z,4.67
2018-02-01T19:42:31.716Z,4.60
2018-02-01T19:45:00.122Z,5.60
2018-02-01T19:47:29.757Z,5.27
2018-02-01T19:49:58.249Z,4.90
2018-02-01T19:52:26.564Z,5.30
2018-02-01T19:54:55.152Z,5.27
2018-02-01T19:57:23.639Z,5.70
2018-02-01T19:59:51.955Z,6.37
2018-02-01T20:02:20.259Z,5.50
2018-02-01T20:04:48.599Z,4.63
2018-02-01T20:07:16.911Z,4.60
2018-02-01T20:09:45.279Z,4.97
2018-02-01T20:12:13.634Z,4.70
2018-02-01T20:14:41.987Z,3.20
2018-02-01T20:17:10.304Z,3.57
2018-02-01T20:19:38.990Z,3.20
2018-02-01T20:22:07.342Z,4.10
2018-02-01T20:24:36.543Z,3.80
2018-02-01T20:27:04.899Z,3.37
2018-02-01T20:29:34.010Z,3.67
2018-02-01T20:32:02.908Z,3.80
2018-02-01T20:34:31.224Z,4.60
2018-02-01T20:36:59.575Z,2.83
2018-02-01T20:39:28.027Z,4.07
2018-02-01T20:41:56.368Z,3.50
2018-02-01T20:44:24.611Z,5.03
2018-02-01T20:46:53.307Z,2.90
2018-02-01T20:49:21.438Z,2.70
2018-02-01T20:51:50.576Z,2.30
2018-02-01T20:54:18.738Z,2.00
2018-02-01T20:56:46.852Z,1.83
2018-02-01T20:59:15.371Z,2.30
2018-02-01T21:01:43.775Z,2.47
2018-02-01T21:04:11.942Z,2.03
2018-02-01T21:06:40.256Z,2.62
2018-02-01T21:09:08.568Z,2.30
2018-02-01T21:11:37.231Z,2.27
2018-02-01T21:14:05.570Z,2.80
2018-02-01T21:16:33.872Z,3.60
2018-02-01T21:19:02.300Z,2.67
2018-02-01T21:21:30.606Z,2.90
2018-02-01T21:23:58.955Z,2.53
2018-02-01T21:26:28.099Z,3.10
2018-02-01T21:28:56.424Z,2.33
2018-02-01T21:31:24.745Z,3.92
2018-02-01T21:33:53.455Z,3.22
2018-02-01T21:36:22.234Z,3.17
2018-02-01T21:38:50.554Z,2.97
2018-02-01T21:41:19.279Z,2.70
2018-02-01T21:43:47.584Z,2.63
2018-02-01T21:46:15.350Z,3.10
2018-02-01T21:48:43.737Z,2.47
2018-02-01T21:51:11.350Z,2.45
2018-02-01T21:53:39.683Z,2.30
2018-02-01T21:56:07.987Z,2.47
2018-02-01T21:58:36.394Z,2.05
2018-02-01T22:01:04.751Z,2.90
2018-02-01T22:03:33.060Z,2.50
2018-02-01T22:06:01.790Z,2.93
2018-02-01T22:08:30.211Z,3.03
2018-02-01T22:10:58.507Z,3.60
2018-02-01T22:13:26.814Z,2.23
2018-02-01T22:15:55.214Z,2.87
2018-02-01T22:18:23.521Z,2.90
2018-02-01T22:20:52.520Z,2.92
2018-02-01T22:23:20.917Z,3.22
2018-02-01T22:25:49.306Z,3.07
2018-02-01T22:28:17.699Z,2.55
2018-02-01T22:30:46.845Z,2.72
2018-02-01T22:33:15.740Z,2.63
2018-02-01T22:35:44.999Z,3.33
2018-02-01T22:38:13.317Z,3.78
2018-02-01T22:40:41.624Z,3.37
2018-02-01T22:43:09.964Z,2.07
2018-02-01T22:45:38.916Z,1.92
2018-02-01T22:48:07.265Z,2.00
2018-02-01T22:50:35.571Z,2.08
2018-02-01T22:53:03.954Z,2.60
2018-02-01T22:55:32.282Z,1.77
2018-02-01T22:58:00.864Z,2.55
2018-02-01T23:00:29.652Z,1.90
2018-02-01T23:02:58.944Z,1.83
2018-02-01T23:05:28.254Z,2.57
2018-02-01T23:07:57.134Z,2.55
2018-02-01T23:10:26.215Z,2.45
2018-02-01T23:12:55.080Z,2.00
2018-02-01T23:15:24.670Z,2.15
2018-02-01T23:17:53.216Z,2.45
2018-02-01T23:20:22.009Z,2.97
2018-02-01T23:22:50.383Z,2.67
2018-02-01T23:25:19.406Z,2.80
2018-02-01T23:27:48.799Z,3.03
2018-02-01T23:30:17.425Z,2.47
2018-02-01T23:32:45.932Z,3.27
2018-02-01T23:35:14.255Z,3.37
2018-02-01T23:37:42.612Z,3.03
2018-02-01T23:40:10.926Z,3.35
2018-02-01T23:42:39.242Z,4.90
2018-02-01T23:45:07.643Z,3.67
2018-02-01T23:47:35.959Z,3.00
2018-02-01T23:50:04.274Z,3.85
2018-02-01T23:52:32.620Z,3.28
2018-02-01T23:55:00.945Z,3.90
2018-02-01T23:57:29.256Z,3.90
2018-02-01T23:59:58.672Z,4.18
